Time;durP1;ratioP1;P1;durP2;ratioP2;P2;SDS_P1;SDS_P2;PMS_P1;PMS_P2;Temp;Humidity;BMP_temperature;BMP_pressure;BME280_temperature;BME280_humidity;BME280_pressure;Samples;Min_cycle;Max_cycle;Signal;HPM_P1;HPM_P2
2022/05/06 00:00:16;;;;;;;;;;;;;;;21.25;28.51;98610.56;5057239;28;982;-74
2022/05/06 00:02:42;;;;;;;;;;;;;;;21.42;28.16;98607.91;5075783;28;1961;-74
2022/05/06 00:05:07;;;;;;;;;;;;;;;21.26;28.39;98605.72;5073599;28;1039;-74
2022/05/06 00:07:33;;;;;;;;;;;;;;;21.49;28.09;98608.59;5073482;28;922;-73
2022/05/06 00:10:01;;;;;;;;;;;;;;;21.82;27.50;98609.66;5073326;28;951;-74
2022/05/06 00:12:26;;;;;;;;;;;;;;;21.53;27.86;98623.50;5073416;28;955;-74
2022/05/06 00:14:53;;;;;;;;;;;;;;;21.43;27.68;98618.00;5073864;28;1002;-74
2022/05/06 00:17:19;;;;;;;;;;;;;;;21.40;28.03;98616.84;5073317;28;991;-74
2022/05/06 00:19:45;;;;;;;;;;;;;;;21.50;27.79;98615.88;5073356;28;1017;-73
2022/05/06 00:22:11;;;;;;;;;;;;;;;21.64;27.98;98616.84;5073277;28;1428;-73
2022/05/06 00:24:37;;;;;;;;;;;;;;;21.88;27.27;98618.47;5072910;28;1921;-73
2022/05/06 00:27:02;;;;;;;;;;;;;;;21.36;28.07;98635.13;5073400;28;1154;-73
2022/05/06 00:29:28;;;;;;;;;;;;;;;21.44;27.84;98625.25;5073032;28;1600;-74
2022/05/06 00:31:53;;;;;;;;;;;;;;;21.33;28.28;98629.06;5033021;28;1216;-74
2022/05/06 00:34:19;;;;;;;;;;;;;;;21.54;28.01;98627.91;5033024;28;1004;-74
2022/05/06 00:36:45;;;;;;;;;;;;;;;21.87;27.63;98627.41;5032591;28;1090;-74
2022/05/06 00:39:11;;;;;;;;;;;;;;;21.98;27.12;98628.78;5032814;28;938;-74
2022/05/06 00:41:36;;;;;;;;;;;;;;;21.67;27.74;98625.28;5032735;28;1116;-74
2022/05/06 00:44:04;;;;;;;;;;;;;;;21.54;27.71;98625.09;5032872;28;1902;-74
2022/05/06 00:46:30;;;;;;;;;;;;;;;21.42;27.86;98624.91;5032731;28;962;-73
2022/05/06 00:48:55;;;;;;;;;;;;;;;21.46;27.71;98625.66;5016452;28;1310;-74
2022/05/06 00:51:21;;;;;;;;;;;;;;;21.77;27.69;98629.97;5032718;28;1047;-74
2022/05/06 00:53:47;;;;;;;;;;;;;;;21.96;27.32;98624.78;5032847;28;998;-73
2022/05/06 00:56:13;;;;;;;;;;;;;;;21.81;27.28;98625.06;5032828;28;944;-74
2022/05/06 00:58:39;;;;;;;;;;;;;;;21.60;27.85;98619.72;5032898;28;944;-74
2022/05/06 01:01:05;;;;;;;;;;;;;;;21.55;27.53;98625.88;5002521;28;1047;-74
2022/05/06 01:03:31;;;;;;;;;;;;;;;21.55;27.47;98623.06;5012612;28;1910;-74
2022/05/06 01:05:57;;;;;;;;;;;;;;;21.45;28.05;98618.38;4996410;28;1119;-74
2022/05/06 01:08:23;;;;;;;;;;;;;;;21.41;28.11;98612.00;5012683;28;1015;-74
2022/05/06 01:10:49;;;;;;;;;;;;;;;21.32;28.19;98616.16;5012813;28;1309;-74
2022/05/06 01:13:18;;;;;;;;;;;;;;;21.41;28.16;98617.66;5027607;28;1064;-74
2022/05/06 01:15:43;;;;;;;;;;;;;;;21.37;28.21;98614.06;5012574;28;1250;-74
2022/05/06 01:18:19;;;;;;;;;;;;;;;21.51;27.90;98619.50;5012321;28;1060;-73
2022/05/06 01:20:46;;;;;;;;;;;;;;;21.33;28.31;98611.28;5012266;28;1109;-74
2022/05/06 01:23:11;;;;;;;;;;;;;;;21.37;28.28;98617.69;5012173;28;1909;-73
2022/05/06 01:25:37;;;;;;;;;;;;;;;21.49;27.94;98613.44;5012776;28;947;-74
2022/05/06 01:28:03;;;;;;;;;;;;;;;21.82;27.43;98609.66;5012393;28;955;-74
2022/05/06 01:30:29;;;;;;;;;;;;;;;21.84;27.61;98615.69;5012375;28;1184;-74
2022/05/06 01:32:54;;;;;;;;;;;;;;;21.49;27.64;98611.41;4992647;28;1300;-74
2022/05/06 01:35:20;;;;;;;;;;;;;;;21.41;28.05;98607.13;4976574;28;1036;-74
2022/05/06 01:37:45;;;;;;;;;;;;;;;21.40;27.89;98616.03;4973447;28;1020;-74
2022/05/06 01:40:11;;;;;;;;;;;;;;;21.33;27.98;98609.25;4973159;28;1230;-73
2022/05/06 01:42:38;;;;;;;;;;;;;;;21.22;28.32;98611.41;4953693;29;1903;-73
2022/05/06 01:45:07;;;;;;;;;;;;;;;21.22;28.55;98610.63;4953953;28;1152;-73
2022/05/06 01:47:32;;;;;;;;;;;;;;;21.29;28.15;98605.63;4957041;28;1278;-73
2022/05/06 01:50:03;;;;;;;;;;;;;;;21.41;28.29;98609.94;4918416;29;1092;-73
2022/05/06 01:52:31;;;;;;;;;;;;;;;21.76;27.40;98602.88;4895701;29;1188;-74
2022/05/06 01:54:56;;;;;;;;;;;;;;;21.86;27.28;98615.25;4911859;29;1252;-74
2022/05/06 01:57:22;;;;;;;;;;;;;;;21.51;27.89;98619.50;4915820;29;1108;-74
2022/05/06 01:59:48;;;;;;;;;;;;;;;21.36;27.85;98618.13;4915781;29;1320;-74
2022/05/06 02:02:19;;;;;;;;;;;;;;;21.27;28.21;98625.09;4949428;29;1153;-74
2022/05/06 02:07:33;;;;;;;;;;;;;;;21.90;27.19;98620.84;4934740;29;1108;-74
2022/05/06 02:09:59;;;;;;;;;;;;;;;21.75;27.52;98617.47;4953603;29;1133;-74
2022/05/06 02:12:26;;;;;;;;;;;;;;;21.62;27.42;98614.47;4992214;28;1228;-74
2022/05/06 02:15:18;;;;;;;;;;;;;;;21.43;27.92;98615.97;4992480;28;1025;-74
2022/05/06 02:17:52;;;;;;;;;;;;;;;21.33;28.08;98608.44;4972710;28;1098;-74
2022/05/06 02:20:24;;;;;;;;;;;;;;;21.78;27.37;98614.56;4970958;28;1501;-74
2022/05/06 02:22:53;;;;;;;;;;;;;;;21.74;27.48;98613.84;4972504;28;1914;-73
2022/05/06 02:25:43;;;;;;;;;;;;;;;22.03;27.21;98619.00;4992290;28;1412;-74
2022/05/06 02:28:14;;;;;;;;;;;;;;;21.62;27.66;98622.94;4992134;28;975;-73
2022/05/06 02:33:33;;;;;;;;;;;;;;;21.42;27.67;98611.56;4957034;28;1073;-74
2022/05/06 02:36:09;;;;;;;;;;;;;;;21.32;28.20;98610.47;4960062;28;1365;-73
2022/05/06 02:38:36;;;;;;;;;;;;;;;21.21;28.24;98621.16;4976063;28;1105;-74
2022/05/06 02:41:02;;;;;;;;;;;;;;;21.25;28.10;98609.78;4976202;28;1433;-74
2022/05/06 02:43:36;;;;;;;;;;;;;;;21.27;28.03;98608.09;4976374;28;1994;-74
2022/05/06 02:46:02;;;;;;;;;;;;;;;21.19;28.40;98608.63;4987177;28;1025;-73
2022/05/06 02:48:27;;;;;;;;;;;;;;;21.52;27.85;98607.75;4983373;28;1384;-73
2022/05/06 02:50:53;;;;;;;;;;;;;;;21.86;27.21;98615.25;4995605;28;1032;-74
2022/05/06 02:53:20;;;;;;;;;;;;;;;21.75;27.38;98615.44;5034483;28;1107;-74
2022/05/06 02:55:46;;;;;;;;;;;;;;;21.42;27.65;98613.59;4998367;28;1391;-74
2022/05/06 02:58:12;;;;;;;;;;;;;;;21.43;27.61;98607.47;4998413;28;1279;-74
2022/05/06 03:00:38;;;;;;;;;;;;;;;21.37;27.72;98612.03;5014642;28;1093;-74
2022/05/06 03:03:06;;;;;;;;;;;;;;;21.30;27.73;98610.13;4995046;28;1914;-74
2022/05/06 03:05:34;;;;;;;;;;;;;;;21.43;27.91;98615.19;4995401;28;991;-74
2022/05/06 03:08:02;;;;;;;;;;;;;;;21.75;27.06;98621.09;4978792;28;1278;-74
2022/05/06 03:10:30;;;;;;;;;;;;;;;21.98;27.12;98622.34;4956285;29;1117;-73
2022/05/06 03:12:58;;;;;;;;;;;;;;;21.58;27.20;98622.22;4953651;29;1187;-73
2022/05/06 03:15:26;;;;;;;;;;;;;;;21.43;27.51;98620.84;4920853;29;1167;-74
2022/05/06 03:18:07;;;;;;;;;;;;;;;21.49;27.43;98619.91;4921190;29;1117;-74
2022/05/06 03:20:32;;;;;;;;;;;;;;;21.57;27.81;98626.28;4921307;29;1142;-74
2022/05/06 03:22:58;;;;;;;;;;;;;;;21.77;27.17;98629.19;4898696;29;1907;-73
2022/05/06 03:25:23;;;;;;;;;;;;;;;21.94;26.80;98622.38;4898819;29;1138;-72
2022/05/06 03:28:07;;;;;;;;;;;;;;;21.55;27.40;98628.72;4898806;29;1017;-73
2022/05/06 03:30:38;;;;;;;;;;;;;;;21.48;27.41;98628.84;4898854;29;925;-74
2022/05/06 03:33:18;;;;;;;;;;;;;;;21.40;27.73;98630.19;4898954;29;1451;-74
2022/05/06 03:35:45;;;;;;;;;;;;;;;21.72;27.47;98633.31;4936842;29;1145;-74
2022/05/06 03:38:12;;;;;;;;;;;;;;;21.98;26.98;98639.34;4936627;29;1141;-73
2022/05/06 03:40:42;;;;;;;;;;;;;;;21.74;27.35;98632.88;4962273;28;1523;-74
2022/05/06 03:43:07;;;;;;;;;;;;;;;21.64;27.41;98631.81;4997055;28;1977;-73
2022/05/06 03:45:38;;;;;;;;;;;;;;;21.55;27.42;98640.03;5017321;28;1070;-74
2022/05/06 03:48:04;;;;;;;;;;;;;;;21.41;28.06;98646.75;4997537;28;1166;-73
2022/05/06 03:53:18;;;;;;;;;;;;;;;21.40;28.01;98645.16;4951074;29;1075;-74
2022/05/06 03:55:47;;;;;;;;;;;;;;;21.32;28.07;98644.44;4936108;29;1055;-74
2022/05/06 03:58:13;;;;;;;;;;;;;;;21.32;28.10;98644.44;4936308;29;1097;-74
2022/05/06 04:00:40;;;;;;;;;;;;;;;21.45;27.86;98644.69;4936324;29;1176;-74
2022/05/06 04:03:08;;;;;;;;;;;;;;;21.33;28.05;98651.72;4917168;29;1982;-74
2022/05/06 04:05:34;;;;;;;;;;;;;;;21.29;28.14;98656.59;4928907;29;985;-74
2022/05/06 04:08:01;;;;;;;;;;;;;;;21.35;28.22;98647.66;4954986;29;1327;-74
2022/05/06 04:10:27;;;;;;;;;;;;;;;21.38;27.90;98658.94;4939391;29;1246;-74
2022/05/06 04:12:54;;;;;;;;;;;;;;;21.32;27.95;98650.13;4917662;28;1557;-74
2022/05/06 04:15:21;;;;;;;;;;;;;;;21.30;27.97;98658.25;4936016;29;1124;-74
2022/05/06 04:17:48;;;;;;;;;;;;;;;21.37;28.06;98656.53;4920043;29;1011;-74
2022/05/06 04:25:47;;;;;;;;;;;;;;;21.72;27.20;98655.97;4996948;28;1282;-74
2022/05/06 04:28:16;;;;;;;;;;;;;;;21.43;27.91;98660.47;5048630;28;1161;-74
2022/05/06 04:30:44;;;;;;;;;;;;;;;21.45;27.93;98658.00;5036261;28;1083;-74
2022/05/06 04:33:13;;;;;;;;;;;;;;;21.27;28.05;98656.22;5038422;28;1126;-74
2022/05/06 04:35:42;;;;;;;;;;;;;;;21.26;28.04;98657.47;5053015;28;1171;-75
2022/05/06 04:38:09;;;;;;;;;;;;;;;21.29;28.14;98662.25;5033563;28;1492;-74
2022/05/06 04:40:37;;;;;;;;;;;;;;;21.62;27.76;98662.59;5016428;28;1270;-74
2022/05/06 04:43:04;;;;;;;;;;;;;;;21.66;27.50;98657.69;5016037;28;1977;-74
2022/05/06 04:45:31;;;;;;;;;;;;;;;21.83;27.25;98661.44;5032543;28;1271;-74
2022/05/06 04:48:04;;;;;;;;;;;;;;;21.42;28.09;98658.88;5033060;28;950;-74
2022/05/06 04:50:32;;;;;;;;;;;;;;;21.39;28.20;98651.22;5016284;28;1315;-74
2022/05/06 04:52:57;;;;;;;;;;;;;;;21.30;28.37;98661.06;5012811;28;1235;-73
2022/05/06 04:55:23;;;;;;;;;;;;;;;21.51;27.94;98667.63;5011722;28;1285;-74
2022/05/06 04:57:49;;;;;;;;;;;;;;;21.84;27.56;98658.16;5013024;28;1450;-74
2022/05/06 05:00:15;;;;;;;;;;;;;;;21.83;27.25;98667.91;5012635;28;1128;-74
2022/05/06 05:02:44;;;;;;;;;;;;;;;21.52;28.06;98672.06;5012654;28;1981;-74
2022/05/06 05:05:11;;;;;;;;;;;;;;;21.37;28.08;98663.00;5012312;28;1394;-74
2022/05/06 05:07:36;;;;;;;;;;;;;;;21.41;27.72;98662.94;5007155;28;1222;-74
2022/05/06 05:10:02;;;;;;;;;;;;;;;21.25;28.04;98664.34;4992852;28;1146;-74
2022/05/06 05:12:28;;;;;;;;;;;;;;;21.42;28.21;98665.34;4997329;28;1395;-74
2022/05/06 05:14:54;;;;;;;;;;;;;;;21.77;27.54;98657.50;5012597;28;1073;-74
2022/05/06 05:17:24;;;;;;;;;;;;;;;21.93;27.11;98671.00;4995977;28;1115;-74
2022/05/06 05:19:52;;;;;;;;;;;;;;;21.56;27.89;98664.31;4996009;28;1402;-74
2022/05/06 05:22:18;;;;;;;;;;;;;;;21.31;28.13;98671.16;5007731;28;1251;-74
2022/05/06 05:24:46;;;;;;;;;;;;;;;21.19;28.26;98662.41;4960219;28;1910;-75
2022/05/06 05:27:14;;;;;;;;;;;;;;;21.39;28.22;98676.72;4989115;28;1534;-74
2022/05/06 05:29:39;;;;;;;;;;;;;;;21.70;27.69;98675.41;4971185;28;1258;-74
2022/05/06 05:32:05;;;;;;;;;;;;;;;21.70;27.48;98675.41;5010322;28;1481;-73
2022/05/06 05:34:31;;;;;;;;;;;;;;;21.64;27.67;98687.66;5010869;28;1364;-74
2022/05/06 05:36:57;;;;;;;;;;;;;;;21.49;27.77;98684.25;5011648;28;1411;-74
2022/05/06 05:39:23;;;;;;;;;;;;;;;21.12;28.30;98680.28;4995009;28;1223;-74
2022/05/06 05:41:51;;;;;;;;;;;;;;;21.16;28.08;98686.72;5012287;28;1319;-74
2022/05/06 05:49:53;;;;;;;;;;;;;;;21.66;27.27;98691.66;4972942;28;1182;-74
2022/05/06 05:52:18;;;;;;;;;;;;;;;21.40;27.64;98683.97;4953410;28;1262;-74
2022/05/06 05:54:45;;;;;;;;;;;;;;;21.32;27.92;98684.09;4952093;28;1128;-74
2022/05/06 05:57:10;;;;;;;;;;;;;;;21.35;27.68;98684.44;4971550;28;1061;-74
2022/05/06 05:59:38;;;;;;;;;;;;;;;21.70;27.14;98683.91;4953567;28;1268;-74
2022/05/06 06:02:04;;;;;;;;;;;;;;;21.66;27.24;98680.34;4953082;28;1032;-74
2022/05/06 06:04:30;;;;;;;;;;;;;;;21.80;27.01;98671.59;4953380;29;1919;-74
2022/05/06 06:06:57;;;;;;;;;;;;;;;21.57;27.16;98680.88;4965090;28;1260;-74
2022/05/06 06:09:23;;;;;;;;;;;;;;;21.38;27.44;98680.78;4976743;28;1453;-74
2022/05/06 06:11:54;;;;;;;;;;;;;;;21.25;27.62;98684.16;4976662;28;1065;-74
2022/05/06 06:14:20;;;;;;;;;;;;;;;21.44;27.58;98679.06;5015357;28;1143;-74
2022/05/06 06:16:47;;;;;;;;;;;;;;;21.61;27.29;98682.88;5015456;28;1631;-74
2022/05/06 06:19:13;;;;;;;;;;;;;;;21.76;26.83;98679.38;5020392;28;1277;-73
2022/05/06 06:21:43;;;;;;;;;;;;;;;21.57;27.16;98694.25;5055243;28;1513;-74
2022/05/06 06:24:09;;;;;;;;;;;;;;;21.33;27.85;98690.53;5018421;28;1989;-74
2022/05/06 06:26:35;;;;;;;;;;;;;;;21.19;27.77;98694.38;5015326;28;1298;-73
2022/05/06 06:29:04;;;;;;;;;;;;;;;21.37;27.77;98682.81;5034957;28;1261;-74
2022/05/06 06:31:31;;;;;;;;;;;;;;;21.85;26.92;98682.44;5035020;28;1142;-74
2022/05/06 06:33:58;;;;;;;;;;;;;;;22.00;26.56;98683.00;5069763;28;1131;-74
2022/05/06 06:36:29;;;;;;;;;;;;;;;21.64;26.97;98696.16;5057895;28;1110;-74
2022/05/06 06:38:55;;;;;;;;;;;;;;;21.53;27.40;98690.66;5057874;28;1134;-74
2022/05/06 06:41:22;;;;;;;;;;;;;;;21.31;27.50;98693.81;5057659;28;1234;-74
2022/05/06 06:43:48;;;;;;;;;;;;;;;21.10;27.83;98699.75;5074673;28;1901;-74
2022/05/06 06:46:33;;;;;;;;;;;;;;;21.62;27.07;98696.59;5015370;28;992;-74
2022/05/06 06:49:18;;;;;;;;;;;;;;;21.90;26.53;98694.50;5014295;28;1240;-74
2022/05/06 06:52:00;;;;;;;;;;;;;;;21.89;26.58;98698.59;5031380;28;1362;-74
2022/05/06 06:54:26;;;;;;;;;;;;;;;21.52;27.36;98708.88;5007184;28;1121;-74
2022/05/06 06:56:51;;;;;;;;;;;;;;;21.50;27.25;98700.00;4975686;28;1040;-74
2022/05/06 06:59:17;;;;;;;;;;;;;;;21.32;27.32;98703.91;4972555;28;1039;-74
2022/05/06 07:01:42;;;;;;;;;;;;;;;21.50;27.21;98700.00;4956464;29;1061;-74
2022/05/06 07:04:08;;;;;;;;;;;;;;;21.90;26.47;98711.50;4956504;29;1899;-74
2022/05/06 07:12:02;;;;;;;;;;;;;;;21.18;27.38;98706.88;5014556;28;977;-73
2022/05/06 07:14:35;;;;;;;;;;;;;;;21.21;27.72;98710.91;5049919;28;1233;-73
2022/05/06 07:17:02;;;;;;;;;;;;;;;21.36;27.37;98711.56;5053352;28;1101;-74
2022/05/06 07:19:28;;;;;;;;;;;;;;;21.60;26.94;98704.69;5053780;28;1025;-73
2022/05/06 07:21:53;;;;;;;;;;;;;;;21.67;27.01;98715.94;5054042;28;1557;-74
2022/05/06 07:24:19;;;;;;;;;;;;;;;21.66;26.88;98714.34;5054206;28;1984;-73
2022/05/06 07:26:45;;;;;;;;;;;;;;;21.52;26.95;98717.38;5054048;28;931;-73
2022/05/06 07:29:10;;;;;;;;;;;;;;;21.44;27.29;98713.03;5054027;28;1130;-73
2022/05/06 07:31:36;;;;;;;;;;;;;;;21.21;27.29;98713.75;5053867;28;946;-73
2022/05/06 07:34:01;;;;;;;;;;;;;;;21.33;27.34;98719.66;5053925;28;935;-74
2022/05/06 07:36:26;;;;;;;;;;;;;;;21.57;26.83;98717.69;5053636;28;948;-73
2022/05/06 07:38:52;;;;;;;;;;;;;;;21.78;26.66;98716.56;5053725;28;1083;-73
2022/05/06 07:41:17;;;;;;;;;;;;;;;21.43;27.09;98711.44;5053790;28;930;-74
2022/05/06 07:43:43;;;;;;;;;;;;;;;21.21;27.17;98720.19;5053743;28;1914;-74
2022/05/06 07:46:12;;;;;;;;;;;;;;;21.33;27.38;98718.84;5038777;28;1016;-73
2022/05/06 07:48:38;;;;;;;;;;;;;;;21.24;27.58;98719.38;5033794;28;976;-73
2022/05/06 07:51:04;;;;;;;;;;;;;;;21.25;27.44;98723.78;5050528;28;1037;-73
2022/05/06 07:53:29;;;;;;;;;;;;;;;21.50;26.96;98723.47;5093993;28;1035;-73
2022/05/06 07:55:55;;;;;;;;;;;;;;;21.72;26.74;98721.09;5093751;28;1089;-73
2022/05/06 07:58:20;;;;;;;;;;;;;;;21.46;26.87;98721.91;5093927;28;1261;-74
2022/05/06 08:00:46;;;;;;;;;;;;;;;21.31;27.25;98724.94;5093640;28;1001;-74
2022/05/06 08:05:59;;;;;;;;;;;;;;;21.06;27.75;98721.63;5079115;28;961;-73
2022/05/06 08:08:25;;;;;;;;;;;;;;;21.27;27.54;98726.97;5093687;28;884;-73
2022/05/06 08:10:51;;;;;;;;;;;;;;;21.76;26.83;98733.19;5076571;28;988;-73
2022/05/06 08:13:17;;;;;;;;;;;;;;;21.71;26.51;98728.00;5076356;28;1084;-74
2022/05/06 08:15:43;;;;;;;;;;;;;;;21.38;27.20;98728.91;5093766;28;899;-74
2022/05/06 08:18:09;;;;;;;;;;;;;;;21.41;27.29;98731.69;5093379;28;904;-74
2022/05/06 08:20:35;;;;;;;;;;;;;;;21.26;27.28;98733.09;5093310;28;1033;-74
2022/05/06 08:23:00;;;;;;;;;;;;;;;21.39;27.38;98733.31;5093282;28;1985;-73
2022/05/06 08:25:26;;;;;;;;;;;;;;;21.70;26.50;98743.38;5059195;28;1067;-74
2022/05/06 08:27:51;;;;;;;;;;;;;;;21.79;26.31;98740.00;5055250;28;973;-73
2022/05/06 08:30:17;;;;;;;;;;;;;;;21.50;26.98;98734.81;5054509;28;917;-73
2022/05/06 08:32:43;;;;;;;;;;;;;;;21.53;26.72;98730.28;5055209;28;927;-74
2022/05/06 08:35:09;;;;;;;;;;;;;;;21.39;27.16;98733.31;5055638;28;928;-74
2022/05/06 08:37:41;;;;;;;;;;;;;;;21.29;27.15;98727.34;5055485;28;906;-74
2022/05/06 08:40:07;;;;;;;;;;;;;;;21.59;26.67;98723.72;5055275;28;901;-73
2022/05/06 08:42:32;;;;;;;;;;;;;;;21.73;26.57;98722.72;5055116;28;958;-75
2022/05/06 08:50:53;;;;;;;;;;;;;;;21.32;27.21;98729.38;5032608;28;1059;-74
2022/05/06 08:53:22;;;;;;;;;;;;;;;21.20;27.39;98735.59;5032656;28;992;-74
2022/05/06 08:55:55;;;;;;;;;;;;;;;21.41;27.12;98723.19;5032663;28;1079;-74
2022/05/06 08:58:21;;;;;;;;;;;;;;;21.76;26.57;98730.34;5032596;28;930;-74
2022/05/06 09:00:47;;;;;;;;;;;;;;;21.91;26.38;98735.78;5032301;28;1113;-74
2022/05/06 09:03:15;;;;;;;;;;;;;;;21.50;27.09;98733.97;5015916;28;1973;-74
2022/05/06 09:05:50;;;;;;;;;;;;;;;21.24;27.44;98727.03;5032796;28;1044;-74
2022/05/06 09:08:16;;;;;;;;;;;;;;;21.25;27.27;98729.44;5032176;28;1005;-74
2022/05/06 09:10:41;;;;;;;;;;;;;;;21.21;27.33;98725.88;5032111;28;964;-74
2022/05/06 09:13:07;;;;;;;;;;;;;;;21.57;27.16;98728.22;5032114;28;922;-73
2022/05/06 09:18:17;;;;;;;;;;;;;;;21.82;26.46;98728.63;5032462;28;1279;-74
2022/05/06 09:20:42;;;;;;;;;;;;;;;21.56;26.92;98726.63;4973099;28;1128;-73
2022/05/06 09:23:20;;;;;;;;;;;;;;;21.32;27.46;98711.59;4972825;28;1914;-74
2022/05/06 09:25:49;;;;;;;;;;;;;;;21.24;27.57;98716.53;4979094;28;978;-74
2022/05/06 09:28:24;;;;;;;;;;;;;;;21.33;27.56;98724.50;4992567;28;1028;-74
2022/05/06 09:31:02;;;;;;;;;;;;;;;21.69;26.75;98719.13;4992823;28;968;-74
2022/05/06 09:33:31;;;;;;;;;;;;;;;21.83;26.64;98724.56;4992364;28;1003;-73
2022/05/06 09:35:56;;;;;;;;;;;;;;;21.56;26.86;98713.25;4992409;28;1013;-73
2022/05/06 09:38:24;;;;;;;;;;;;;;;21.43;27.37;98711.44;4992332;28;922;-74
2022/05/06 09:40:49;;;;;;;;;;;;;;;21.28;27.29;98717.25;4978473;28;1368;-73
2022/05/06 09:43:15;;;;;;;;;;;;;;;21.17;27.58;98716.63;4996597;28;1910;-73
2022/05/06 09:45:43;;;;;;;;;;;;;;;21.29;27.57;98718.06;4957593;29;983;-73
2022/05/06 09:48:09;;;;;;;;;;;;;;;21.59;26.92;98708.75;4957757;28;1172;-74
2022/05/06 09:50:41;;;;;;;;;;;;;;;21.83;26.62;98718.91;4959021;28;990;-74
2022/05/06 09:53:08;;;;;;;;;;;;;;;21.72;26.48;98709.78;4999489;28;946;-74
2022/05/06 09:55:34;;;;;;;;;;;;;;;21.57;27.07;98708.41;5016053;28;795;-74
2022/05/06 09:58:00;;;;;;;;;;;;;;;21.55;26.97;98725.00;5016089;28;954;-74
2022/05/06 10:00:26;;;;;;;;;;;;;;;21.38;27.20;98726.06;5035954;28;967;-74
2022/05/06 10:02:51;;;;;;;;;;;;;;;21.24;27.57;98722.19;5041234;28;1917;-74
2022/05/06 10:05:17;;;;;;;;;;;;;;;21.62;26.84;98719.25;5041069;28;1272;-74
2022/05/06 10:07:43;;;;;;;;;;;;;;;21.66;26.81;98707.84;5035501;28;935;-73
2022/05/06 10:10:18;;;;;;;;;;;;;;;21.44;27.14;98710.19;5035656;28;992;-73
2022/05/06 10:12:45;;;;;;;;;;;;;;;21.28;27.64;98725.75;5019275;28;1010;-73
2022/05/06 10:15:13;;;;;;;;;;;;;;;21.22;27.45;98721.81;5029109;28;1839;-74
2022/05/06 10:17:54;;;;;;;;;;;;;;;21.25;27.42;98720.97;5035352;28;1012;-73
2022/05/06 10:20:38;;;;;;;;;;;;;;;21.50;27.22;98711.31;5052084;28;1092;-73
2022/05/06 10:23:04;;;;;;;;;;;;;;;21.85;26.50;98709.97;5044659;28;1902;-74
2022/05/06 10:25:41;;;;;;;;;;;;;;;21.77;26.76;98722.66;5055319;28;910;-74
2022/05/06 10:34:08;;;;;;;;;;;;;;;21.28;27.81;98717.25;5055157;28;999;-74
2022/05/06 10:36:43;;;;;;;;;;;;;;;21.31;27.47;98710.78;5035279;28;1068;-74
2022/05/06 10:39:27;;;;;;;;;;;;;;;21.11;28.02;98698.50;5034962;28;985;-74
2022/05/06 10:41:59;;;;;;;;;;;;;;;21.48;27.46;98697.59;5035346;28;1082;-74
2022/05/06 10:44:51;;;;;;;;;;;;;;;21.66;27.00;98691.66;5035144;28;1914;-73
2022/05/06 10:47:16;;;;;;;;;;;;;;;21.61;27.01;98694.19;4995544;28;1090;-74
2022/05/06 10:49:43;;;;;;;;;;;;;;;21.43;27.35;98695.25;5013631;28;1035;-73
2022/05/06 10:52:25;;;;;;;;;;;;;;;21.28;27.46;98693.81;5014206;28;1019;-73
2022/05/06 10:54:50;;;;;;;;;;;;;;;21.10;28.03;98694.09;4995405;28;996;-73
2022/05/06 10:57:16;;;;;;;;;;;;;;;21.32;27.60;98695.41;4995363;28;1129;-73
2022/05/06 10:59:48;;;;;;;;;;;;;;;21.62;27.09;98693.75;4975823;28;909;-74
2022/05/06 11:02:13;;;;;;;;;;;;;;;21.86;26.79;98700.22;4975578;28;1034;-74
2022/05/06 11:04:43;;;;;;;;;;;;;;;22.02;26.61;98696.72;4975486;28;1997;-74
2022/05/06 11:07:11;;;;;;;;;;;;;;;21.68;26.87;98692.03;4975881;28;1070;-74
2022/05/06 11:09:37;;;;;;;;;;;;;;;21.46;27.40;98683.06;4975794;28;965;-74
2022/05/06 11:12:04;;;;;;;;;;;;;;;21.31;27.73;98676.81;4975722;28;964;-73
2022/05/06 11:14:29;;;;;;;;;;;;;;;21.25;27.59;98677.72;4975508;28;1046;-73
2022/05/06 11:17:14;;;;;;;;;;;;;;;21.25;27.67;98678.50;4975379;28;1102;-73
2022/05/06 11:19:39;;;;;;;;;;;;;;;21.35;27.45;98684.44;4975688;28;975;-74
2022/05/06 11:22:05;;;;;;;;;;;;;;;21.49;27.47;98684.25;4975396;28;1180;-74
2022/05/06 11:24:30;;;;;;;;;;;;;;;21.75;26.86;98683.41;4991590;28;2018;-74
2022/05/06 11:27:10;;;;;;;;;;;;;;;21.67;26.99;98687.59;5033251;28;978;-73
2022/05/06 11:29:56;;;;;;;;;;;;;;;21.36;27.39;98686.88;5035488;28;1028;-74
2022/05/06 11:32:22;;;;;;;;;;;;;;;21.24;27.93;98688.22;5074178;28;978;-74
2022/05/06 11:35:08;;;;;;;;;;;;;;;21.44;27.52;98679.84;5074172;28;941;-74
2022/05/06 11:37:34;;;;;;;;;;;;;;;21.76;27.07;98681.38;5073760;28;957;-73
2022/05/06 11:42:43;;;;;;;;;;;;;;;21.44;27.34;98679.06;5073852;28;1092;-74
2022/05/06 11:48:05;;;;;;;;;;;;;;;21.30;27.77;98666.75;5073146;28;926;-73
2022/05/06 11:50:33;;;;;;;;;;;;;;;21.32;27.65;98678.41;5073597;28;996;-73
2022/05/06 11:52:59;;;;;;;;;;;;;;;21.54;27.32;98678.88;5073694;28;961;-74
2022/05/06 11:55:24;;;;;;;;;;;;;;;21.75;27.07;98672.06;5073323;28;898;-74
2022/05/06 11:57:50;;;;;;;;;;;;;;;21.69;26.95;98673.81;5013678;28;1073;-74
2022/05/06 12:00:15;;;;;;;;;;;;;;;21.56;27.24;98670.00;5013692;28;970;-74
2022/05/06 12:02:48;;;;;;;;;;;;;;;21.39;27.45;98660.53;4997135;28;966;-73
2022/05/06 12:05:14;;;;;;;;;;;;;;;21.21;28.07;98660.78;5013803;28;1974;-74
2022/05/06 12:07:40;;;;;;;;;;;;;;;21.35;27.54;98670.28;5013393;28;1086;-74
2022/05/06 12:10:05;;;;;;;;;;;;;;;21.61;27.26;98661.00;4993830;28;1434;-74
2022/05/06 12:12:31;;;;;;;;;;;;;;;21.79;27.01;98661.50;4994105;28;960;-74
2022/05/06 12:15:08;;;;;;;;;;;;;;;21.68;27.16;98655.22;4993832;28;1075;-74
2022/05/06 12:17:35;;;;;;;;;;;;;;;21.49;27.45;98655.94;4993925;28;1058;-74
2022/05/06 12:20:01;;;;;;;;;;;;;;;21.32;27.74;98658.59;4993917;28;953;-74
2022/05/06 12:22:26;;;;;;;;;;;;;;;21.42;27.49;98665.34;4993752;28;1558;-74
2022/05/06 12:24:55;;;;;;;;;;;;;;;21.30;28.01;98649.75;4993537;28;1977;-74
2022/05/06 12:27:26;;;;;;;;;;;;;;;21.66;27.55;98646.34;4999773;28;1490;-74
2022/05/06 12:29:52;;;;;;;;;;;;;;;21.96;26.90;98648.25;5039797;28;1222;-73
2022/05/06 12:32:17;;;;;;;;;;;;;;;21.63;27.39;98647.22;5041155;28;1229;-74
2022/05/06 12:34:42;;;;;;;;;;;;;;;21.56;27.37;98644.50;5015603;28;1175;-76
2022/05/06 12:37:11;;;;;;;;;;;;;;;21.40;27.85;98650.00;5043302;28;1284;-73
2022/05/06 12:39:48;;;;;;;;;;;;;;;21.25;27.85;98638.88;5012622;28;1276;-74
2022/05/06 12:42:20;;;;;;;;;;;;;;;21.19;28.13;98634.94;4992006;28;1578;-74
2022/05/06 12:44:46;;;;;;;;;;;;;;;21.40;27.54;98639.50;4992307;28;1910;-74
2022/05/06 12:47:12;;;;;;;;;;;;;;;21.75;27.23;98643.75;4992961;28;1219;-74
2022/05/06 12:49:41;;;;;;;;;;;;;;;21.81;27.12;98652.56;4992960;28;1301;-74
2022/05/06 12:52:08;;;;;;;;;;;;;;;21.51;27.39;98639.31;4992523;28;1515;-74
2022/05/06 12:54:33;;;;;;;;;;;;;;;21.34;27.72;98641.19;4951019;29;1564;-74
2022/05/06 12:56:59;;;;;;;;;;;;;;;21.33;27.99;98643.22;4953783;29;1275;-74
2022/05/06 12:59:26;;;;;;;;;;;;;;;21.41;27.98;98645.97;4953613;29;1212;-74
2022/05/06 13:01:51;;;;;;;;;;;;;;;21.84;27.25;98641.16;4954417;29;1298;-74
2022/05/06 13:04:17;;;;;;;;;;;;;;;21.83;27.13;98639.59;4954221;29;1906;-74
2022/05/06 13:06:43;;;;;;;;;;;;;;;21.42;27.42;98630.56;4953868;29;1380;-74
2022/05/06 13:09:09;;;;;;;;;;;;;;;21.39;27.67;98631.41;4954087;29;1233;-75
2022/05/06 13:11:34;;;;;;;;;;;;;;;21.27;27.91;98639.25;4988900;28;1025;-74
2022/05/06 13:14:00;;;;;;;;;;;;;;;21.19;27.92;98637.75;5025537;28;1062;-74
2022/05/06 13:16:25;;;;;;;;;;;;;;;21.43;27.68;98620.84;5031634;28;934;-74
2022/05/06 13:18:52;;;;;;;;;;;;;;;21.75;27.34;98621.09;5032313;28;969;-75
2022/05/06 13:21:18;;;;;;;;;;;;;;;21.95;26.93;98623.19;5032214;28;1057;-73
2022/05/06 13:23:44;;;;;;;;;;;;;;;21.57;27.37;98612.13;5031896;28;1918;-72
2022/05/06 13:26:09;;;;;;;;;;;;;;;21.41;27.56;98621.28;5064132;28;967;-72
2022/05/06 13:28:35;;;;;;;;;;;;;;;21.34;27.81;98618.53;5074582;28;828;-72
2022/05/06 13:31:00;;;;;;;;;;;;;;;21.28;27.78;98609.69;5074582;28;1332;-72
2022/05/06 13:33:26;;;;;;;;;;;;;;;21.55;27.47;98618.22;5074762;28;983;-72
2022/05/06 13:35:52;;;;;;;;;;;;;;;21.76;27.04;98619.06;5074378;28;960;-73
2022/05/06 13:38:18;;;;;;;;;;;;;;;21.89;26.87;98613.59;5074574;28;922;-74
2022/05/06 13:40:46;;;;;;;;;;;;;;;21.45;27.47;98618.38;5074529;28;922;-74
2022/05/06 13:43:11;;;;;;;;;;;;;;;21.33;27.74;98616.94;5074460;28;1905;-74
2022/05/06 13:45:37;;;;;;;;;;;;;;;21.22;27.81;98607.78;5074379;28;972;-74
2022/05/06 13:48:03;;;;;;;;;;;;;;;21.32;27.88;98609.69;5761976;22;3542;-75
2022/05/06 13:50:28;;;;;;;;;;;;;;;21.50;27.48;98612.22;4995149;28;774;-75